sensor_id;sensor_type;location;lat;lon;timestamp;temperature;humidity
29363;DHT22;16349;53.672;10.014;2022-08-21T00:00:21;14.60;99.90
29363;DHT22;16349;53.672;10.014;2022-08-21T00:02:51;14.70;99.90
29363;DHT22;16349;53.672;10.014;2022-08-21T00:05:19;14.60;99.90
29363;DHT22;16349;53.672;10.014;2022-08-21T00:07:45;14.50;99.90
29363;DHT22;16349;53.672;10.014;2022-08-21T00:10:13;14.40;99.90
29363;DHT22;16349;53.672;10.014;2022-08-21T00:12:42;14.30;99.90
29363;DHT22;16349;53.672;10.014;2022-08-21T00:15:13;14.20;99.90
29363;DHT22;16349;53.672;10.014;2022-08-21T00:17:41;14.20;99.90
29363;DHT22;16349;53.672;10.014;2022-08-21T00:20:09;14.10;99.90
29363;DHT22;16349;53.672;10.014;2022-08-21T00:22:37;14.10;99.90
29363;DHT22;16349;53.672;10.014;2022-08-21T00:25:05;14.00;99.90
29363;DHT22;16349;53.672;10.014;2022-08-21T00:27:33;14.00;99.90
29363;DHT22;16349;53.672;10.014;2022-08-21T00:30:03;13.90;99.90
29363;DHT22;16349;53.672;10.014;2022-08-21T00:32:30;13.90;99.90
29363;DHT22;16349;53.672;10.014;2022-08-21T00:34:57;14.00;99.90
29363;DHT22;16349;53.672;10.014;2022-08-21T00:37:24;14.00;99.90
29363;DHT22;16349;53.672;10.014;2022-08-21T00:39:50;14.00;99.90
29363;DHT22;16349;53.672;10.014;2022-08-21T00:42:19;14.00;99.90
29363;DHT22;16349;53.672;10.014;2022-08-21T00:44:48;14.00;99.90
29363;DHT22;16349;53.672;10.014;2022-08-21T00:47:16;14.00;99.90
29363;DHT22;16349;53.672;10.014;2022-08-21T00:49:44;14.10;99.90
29363;DHT22;16349;53.672;10.014;2022-08-21T00:52:13;14.20;99.90
29363;DHT22;16349;53.672;10.014;2022-08-21T00:54:42;14.20;99.90
29363;DHT22;16349;53.672;10.014;2022-08-21T00:57:13;14.20;99.90
29363;DHT22;16349;53.672;10.014;2022-08-21T00:59:43;14.20;99.90
29363;DHT22;16349;53.672;10.014;2022-08-21T01:02:11;14.10;99.90
29363;DHT22;16349;53.672;10.014;2022-08-21T01:04:40;14.00;99.90
29363;DHT22;16349;53.672;10.014;2022-08-21T01:07:07;14.00;99.90
29363;DHT22;16349;53.672;10.014;2022-08-21T01:09:35;13.90;99.90
29363;DHT22;16349;53.672;10.014;2022-08-21T01:12:03;14.00;99.90
29363;DHT22;16349;53.672;10.014;2022-08-21T01:14:30;14.00;99.90
29363;DHT22;16349;53.672;10.014;2022-08-21T01:16:59;14.00;99.90
29363;DHT22;16349;53.672;10.014;2022-08-21T01:19:29;14.10;99.90
29363;DHT22;16349;53.672;10.014;2022-08-21T01:21:57;14.10;99.90
29363;DHT22;16349;53.672;10.014;2022-08-21T01:24:25;14.00;99.90
29363;DHT22;16349;53.672;10.014;2022-08-21T01:26:52;14.00;99.90
29363;DHT22;16349;53.672;10.014;2022-08-21T01:29:29;13.90;99.90
29363;DHT22;16349;53.672;10.014;2022-08-21T01:31:57;13.90;99.90
29363;DHT22;16349;53.672;10.014;2022-08-21T01:34:24;13.90;99.90
29363;DHT22;16349;53.672;10.014;2022-08-21T01:36:51;13.90;99.90
29363;DHT22;16349;53.672;10.014;2022-08-21T01:39:19;13.90;99.90
29363;DHT22;16349;53.672;10.014;2022-08-21T01:41:46;13.90;99.90
29363;DHT22;16349;53.672;10.014;2022-08-21T01:44:13;13.90;99.90
29363;DHT22;16349;53.672;10.014;2022-08-21T01:46:40;13.90;99.90
29363;DHT22;16349;53.672;10.014;2022-08-21T01:49:07;13.80;99.90
29363;DHT22;16349;53.672;10.014;2022-08-21T01:51:34;13.90;99.90
29363;DHT22;16349;53.672;10.014;2022-08-21T01:54:02;13.90;99.90
29363;DHT22;16349;53.672;10.014;2022-08-21T01:56:35;13.80;99.90
29363;DHT22;16349;53.672;10.014;2022-08-21T01:59:02;13.90;99.90
29363;DHT22;16349;53.672;10.014;2022-08-21T02:01:29;13.90;99.90
29363;DHT22;16349;53.672;10.014;2022-08-21T02:03:56;13.80;99.90
29363;DHT22;16349;53.672;10.014;2022-08-21T02:06:23;13.80;99.90
29363;DHT22;16349;53.672;10.014;2022-08-21T02:08:50;13.70;99.90
29363;DHT22;16349;53.672;10.014;2022-08-21T02:11:17;13.70;99.90
29363;DHT22;16349;53.672;10.014;2022-08-21T02:13:45;13.70;99.90
29363;DHT22;16349;53.672;10.014;2022-08-21T02:16:13;13.60;99.90
29363;DHT22;16349;53.672;10.014;2022-08-21T02:18:40;13.60;99.90
29363;DHT22;16349;53.672;10.014;2022-08-21T02:21:07;13.60;99.90
29363;DHT22;16349;53.672;10.014;2022-08-21T02:23:35;13.60;99.90
29363;DHT22;16349;53.672;10.014;2022-08-21T02:26:04;13.60;99.90
29363;DHT22;16349;53.672;10.014;2022-08-21T02:28:32;13.60;99.90
29363;DHT22;16349;53.672;10.014;2022-08-21T02:31:00;13.50;99.90
29363;DHT22;16349;53.672;10.014;2022-08-21T02:33:28;13.50;99.90
29363;DHT22;16349;53.672;10.014;2022-08-21T02:35:55;13.50;99.90
29363;DHT22;16349;53.672;10.014;2022-08-21T02:38:25;13.50;99.90
29363;DHT22;16349;53.672;10.014;2022-08-21T02:40:53;13.50;99.90
29363;DHT22;16349;53.672;10.014;2022-08-21T02:43:22;13.50;99.90
29363;DHT22;16349;53.672;10.014;2022-08-21T02:45:51;13.50;99.90
29363;DHT22;16349;53.672;10.014;2022-08-21T02:48:22;13.50;99.90
29363;DHT22;16349;53.672;10.014;2022-08-21T02:50:54;13.50;99.90
29363;DHT22;16349;53.672;10.014;2022-08-21T02:53:22;13.50;99.90
29363;DHT22;16349;53.672;10.014;2022-08-21T02:55:50;13.50;99.90
29363;DHT22;16349;53.672;10.014;2022-08-21T02:58:24;13.40;99.90
29363;DHT22;16349;53.672;10.014;2022-08-21T03:00:52;13.30;99.90
29363;DHT22;16349;53.672;10.014;2022-08-21T03:03:20;13.40;99.90
29363;DHT22;16349;53.672;10.014;2022-08-21T03:05:48;13.40;99.90
29363;DHT22;16349;53.672;10.014;2022-08-21T03:08:16;13.50;99.90
29363;DHT22;16349;53.672;10.014;2022-08-21T03:10:47;13.50;99.90
29363;DHT22;16349;53.672;10.014;2022-08-21T03:13:15;13.40;99.90
29363;DHT22;16349;53.672;10.014;2022-08-21T03:15:42;13.30;99.90
29363;DHT22;16349;53.672;10.014;2022-08-21T03:18:10;13.40;99.90
29363;DHT22;16349;53.672;10.014;2022-08-21T03:20:40;13.50;99.90
29363;DHT22;16349;53.672;10.014;2022-08-21T03:23:08;13.50;99.90
29363;DHT22;16349;53.672;10.014;2022-08-21T03:25:35;13.50;99.90
29363;DHT22;16349;53.672;10.014;2022-08-21T03:28:04;13.50;99.90
29363;DHT22;16349;53.672;10.014;2022-08-21T03:30:31;13.50;99.90
29363;DHT22;16349;53.672;10.014;2022-08-21T03:32:58;13.50;99.90
29363;DHT22;16349;53.672;10.014;2022-08-21T03:35:26;13.50;99.90
29363;DHT22;16349;53.672;10.014;2022-08-21T03:37:54;13.50;99.90
29363;DHT22;16349;53.672;10.014;2022-08-21T03:40:22;13.40;99.90
29363;DHT22;16349;53.672;10.014;2022-08-21T03:42:50;13.40;99.90
29363;DHT22;16349;53.672;10.014;2022-08-21T03:45:18;13.40;99.90
29363;DHT22;16349;53.672;10.014;2022-08-21T03:47:54;13.40;99.90
29363;DHT22;16349;53.672;10.014;2022-08-21T03:50:23;13.40;99.90
29363;DHT22;16349;53.672;10.014;2022-08-21T03:52:51;13.40;99.90
29363;DHT22;16349;53.672;10.014;2022-08-21T03:55:19;13.30;99.90
29363;DHT22;16349;53.672;10.014;2022-08-21T03:57:46;13.30;99.90
29363;DHT22;16349;53.672;10.014;2022-08-21T04:00:15;13.40;99.90
29363;DHT22;16349;53.672;10.014;2022-08-21T04:02:42;13.40;99.90
29363;DHT22;16349;53.672;10.014;2022-08-21T04:05:10;13.40;99.90
29363;DHT22;16349;53.672;10.014;2022-08-21T04:07:38;13.40;99.90
29363;DHT22;16349;53.672;10.014;2022-08-21T04:10:06;13.30;99.90
29363;DHT22;16349;53.672;10.014;2022-08-21T04:12:34;13.20;99.90
29363;DHT22;16349;53.672;10.014;2022-08-21T04:15:02;13.10;99.90
29363;DHT22;16349;53.672;10.014;2022-08-21T04:17:29;13.10;99.90
29363;DHT22;16349;53.672;10.014;2022-08-21T04:19:56;13.20;99.90
29363;DHT22;16349;53.672;10.014;2022-08-21T04:22:23;13.20;99.90
29363;DHT22;16349;53.672;10.014;2022-08-21T04:24:49;13.30;99.90
29363;DHT22;16349;53.672;10.014;2022-08-21T04:27:16;13.40;99.90
29363;DHT22;16349;53.672;10.014;2022-08-21T04:29:44;13.30;99.90
29363;DHT22;16349;53.672;10.014;2022-08-21T04:32:11;13.40;99.90
29363;DHT22;16349;53.672;10.014;2022-08-21T04:34:38;13.40;99.90
29363;DHT22;16349;53.672;10.014;2022-08-21T04:37:05;13.40;99.90
29363;DHT22;16349;53.672;10.014;2022-08-21T04:39:32;13.40;99.90
29363;DHT22;16349;53.672;10.014;2022-08-21T04:41:59;13.30;99.90
29363;DHT22;16349;53.672;10.014;2022-08-21T04:44:26;13.30;99.90
29363;DHT22;16349;53.672;10.014;2022-08-21T04:46:54;13.40;99.90
29363;DHT22;16349;53.672;10.014;2022-08-21T04:49:21;13.40;99.90
29363;DHT22;16349;53.672;10.014;2022-08-21T04:51:49;13.40;99.90
29363;DHT22;16349;53.672;10.014;2022-08-21T04:54:19;13.50;99.90
29363;DHT22;16349;53.672;10.014;2022-08-21T04:56:50;13.60;99.90
29363;DHT22;16349;53.672;10.014;2022-08-21T04:59:21;13.60;99.90
29363;DHT22;16349;53.672;10.014;2022-08-21T05:01:50;13.60;99.90
29363;DHT22;16349;53.672;10.014;2022-08-21T05:04:24;13.50;99.90
29363;DHT22;16349;53.672;10.014;2022-08-21T05:06:54;13.60;99.90
29363;DHT22;16349;53.672;10.014;2022-08-21T05:09:23;13.70;99.90
29363;DHT22;16349;53.672;10.014;2022-08-21T05:11:51;13.70;99.90
29363;DHT22;16349;53.672;10.014;2022-08-21T05:14:18;13.80;99.90
29363;DHT22;16349;53.672;10.014;2022-08-21T05:16:45;13.80;99.90
29363;DHT22;16349;53.672;10.014;2022-08-21T05:19:12;13.80;99.90
29363;DHT22;16349;53.672;10.014;2022-08-21T05:21:42;13.80;99.90
29363;DHT22;16349;53.672;10.014;2022-08-21T05:24:10;13.90;99.90
29363;DHT22;16349;53.672;10.014;2022-08-21T05:26:37;13.90;99.90
29363;DHT22;16349;53.672;10.014;2022-08-21T05:29:05;14.00;99.90
29363;DHT22;16349;53.672;10.014;2022-08-21T05:31:31;14.00;99.90
29363;DHT22;16349;53.672;10.014;2022-08-21T05:33:58;14.10;99.90
29363;DHT22;16349;53.672;10.014;2022-08-21T05:36:25;14.10;99.90
29363;DHT22;16349;53.672;10.014;2022-08-21T05:38:53;14.20;99.90
29363;DHT22;16349;53.672;10.014;2022-08-21T05:41:20;14.20;99.90
29363;DHT22;16349;53.672;10.014;2022-08-21T05:43:47;14.30;99.90
29363;DHT22;16349;53.672;10.014;2022-08-21T05:46:15;14.40;99.90
29363;DHT22;16349;53.672;10.014;2022-08-21T05:48:42;14.40;99.90
29363;DHT22;16349;53.672;10.014;2022-08-21T05:51:11;14.50;99.90
29363;DHT22;16349;53.672;10.014;2022-08-21T05:53:38;14.60;99.90
29363;DHT22;16349;53.672;10.014;2022-08-21T05:56:06;14.60;99.90
29363;DHT22;16349;53.672;10.014;2022-08-21T05:58:33;14.60;99.90
29363;DHT22;16349;53.672;10.014;2022-08-21T06:01:01;14.70;99.90
29363;DHT22;16349;53.672;10.014;2022-08-21T06:03:31;14.80;99.90
29363;DHT22;16349;53.672;10.014;2022-08-21T06:05:58;14.90;99.90
29363;DHT22;16349;53.672;10.014;2022-08-21T06:08:25;14.90;99.90
29363;DHT22;16349;53.672;10.014;2022-08-21T06:10:53;15.00;99.90
29363;DHT22;16349;53.672;10.014;2022-08-21T06:13:22;15.00;99.90
29363;DHT22;16349;53.672;10.014;2022-08-21T06:15:59;15.10;99.90
29363;DHT22;16349;53.672;10.014;2022-08-21T06:18:26;15.10;99.90
29363;DHT22;16349;53.672;10.014;2022-08-21T06:20:53;15.20;99.90
29363;DHT22;16349;53.672;10.014;2022-08-21T06:23:19;15.20;99.90
29363;DHT22;16349;53.672;10.014;2022-08-21T06:25:46;15.30;99.90
29363;DHT22;16349;53.672;10.014;2022-08-21T06:28:13;15.40;99.90
29363;DHT22;16349;53.672;10.014;2022-08-21T06:30:41;15.50;99.90
29363;DHT22;16349;53.672;10.014;2022-08-21T06:33:09;15.60;99.90
29363;DHT22;16349;53.672;10.014;2022-08-21T06:35:36;15.70;99.90
29363;DHT22;16349;53.672;10.014;2022-08-21T06:38:03;15.80;99.90
29363;DHT22;16349;53.672;10.014;2022-08-21T06:40:30;15.90;99.90
29363;DHT22;16349;53.672;10.014;2022-08-21T06:43:05;15.90;99.90
29363;DHT22;16349;53.672;10.014;2022-08-21T06:45:32;16.10;99.90
29363;DHT22;16349;53.672;10.014;2022-08-21T06:48:00;16.10;99.90
29363;DHT22;16349;53.672;10.014;2022-08-21T06:50:27;16.20;99.90
29363;DHT22;16349;53.672;10.014;2022-08-21T06:52:59;16.30;99.90
29363;DHT22;16349;53.672;10.014;2022-08-21T06:55:26;16.40;99.90
29363;DHT22;16349;53.672;10.014;2022-08-21T06:57:52;16.50;99.90
29363;DHT22;16349;53.672;10.014;2022-08-21T07:00:20;16.60;99.90
29363;DHT22;16349;53.672;10.014;2022-08-21T07:02:47;16.70;99.90
29363;DHT22;16349;53.672;10.014;2022-08-21T07:05:15;16.70;99.90
29363;DHT22;16349;53.672;10.014;2022-08-21T07:07:42;16.90;99.90
29363;DHT22;16349;53.672;10.014;2022-08-21T07:10:08;17.00;99.90
29363;DHT22;16349;53.672;10.014;2022-08-21T07:12:36;17.10;99.90
29363;DHT22;16349;53.672;10.014;2022-08-21T07:15:04;17.20;99.90
29363;DHT22;16349;53.672;10.014;2022-08-21T07:17:31;17.30;99.90
29363;DHT22;16349;53.672;10.014;2022-08-21T07:19:57;17.40;99.90
29363;DHT22;16349;53.672;10.014;2022-08-21T07:22:26;17.50;99.90
29363;DHT22;16349;53.672;10.014;2022-08-21T07:24:54;17.60;99.90
29363;DHT22;16349;53.672;10.014;2022-08-21T07:27:21;17.70;99.90
29363;DHT22;16349;53.672;10.014;2022-08-21T07:29:48;17.80;99.90
29363;DHT22;16349;53.672;10.014;2022-08-21T07:32:15;17.90;99.90
29363;DHT22;16349;53.672;10.014;2022-08-21T07:34:42;18.00;99.90
29363;DHT22;16349;53.672;10.014;2022-08-21T07:37:10;18.10;99.90
29363;DHT22;16349;53.672;10.014;2022-08-21T07:39:38;18.10;99.90
29363;DHT22;16349;53.672;10.014;2022-08-21T07:42:05;18.30;99.90
29363;DHT22;16349;53.672;10.014;2022-08-21T07:44:32;18.40;99.90
29363;DHT22;16349;53.672;10.014;2022-08-21T07:47:00;18.50;99.90
29363;DHT22;16349;53.672;10.014;2022-08-21T07:49:27;18.50;99.90
29363;DHT22;16349;53.672;10.014;2022-08-21T07:51:54;18.60;99.90
29363;DHT22;16349;53.672;10.014;2022-08-21T07:54:21;18.80;99.90
29363;DHT22;16349;53.672;10.014;2022-08-21T07:56:49;18.90;99.90
29363;DHT22;16349;53.672;10.014;2022-08-21T07:59:17;19.00;99.90
29363;DHT22;16349;53.672;10.014;2022-08-21T08:01:44;19.20;99.90
29363;DHT22;16349;53.672;10.014;2022-08-21T08:04:10;19.30;99.90
29363;DHT22;16349;53.672;10.014;2022-08-21T08:06:37;19.50;99.90
29363;DHT22;16349;53.672;10.014;2022-08-21T08:09:04;19.70;99.90
29363;DHT22;16349;53.672;10.014;2022-08-21T08:11:31;19.80;99.90
29363;DHT22;16349;53.672;10.014;2022-08-21T08:14:00;20.00;99.90
29363;DHT22;16349;53.672;10.014;2022-08-21T08:16:29;20.10;99.90
29363;DHT22;16349;53.672;10.014;2022-08-21T08:18:56;20.20;99.90
29363;DHT22;16349;53.672;10.014;2022-08-21T08:21:23;20.30;99.90
29363;DHT22;16349;53.672;10.014;2022-08-21T08:23:50;20.40;99.90
29363;DHT22;16349;53.672;10.014;2022-08-21T08:26:17;20.50;99.90
29363;DHT22;16349;53.672;10.014;2022-08-21T08:28:44;20.60;99.90
29363;DHT22;16349;53.672;10.014;2022-08-21T08:31:13;20.70;99.90
29363;DHT22;16349;53.672;10.014;2022-08-21T08:33:40;20.70;99.90
29363;DHT22;16349;53.672;10.014;2022-08-21T08:36:13;20.80;99.90
29363;DHT22;16349;53.672;10.014;2022-08-21T08:38:40;20.90;99.90
29363;DHT22;16349;53.672;10.014;2022-08-21T08:41:11;20.90;99.90
29363;DHT22;16349;53.672;10.014;2022-08-21T08:43:40;21.00;99.90
29363;DHT22;16349;53.672;10.014;2022-08-21T08:46:14;21.10;99.90
29363;DHT22;16349;53.672;10.014;2022-08-21T08:48:46;21.20;99.90
29363;DHT22;16349;53.672;10.014;2022-08-21T08:51:17;21.20;99.90
29363;DHT22;16349;53.672;10.014;2022-08-21T08:53:51;21.30;99.90
29363;DHT22;16349;53.672;10.014;2022-08-21T08:56:27;21.40;99.90
29363;DHT22;16349;53.672;10.014;2022-08-21T08:58:57;21.30;99.90
29363;DHT22;16349;53.672;10.014;2022-08-21T09:01:26;21.40;99.90
29363;DHT22;16349;53.672;10.014;2022-08-21T09:03:53;21.40;99.90
29363;DHT22;16349;53.672;10.014;2022-08-21T09:06:34;21.50;99.90
29363;DHT22;16349;53.672;10.014;2022-08-21T09:09:20;21.50;99.80
29363;DHT22;16349;53.672;10.014;2022-08-21T09:11:52;21.40;99.90
29363;DHT22;16349;53.672;10.014;2022-08-21T09:14:30;21.40;99.90
29363;DHT22;16349;53.672;10.014;2022-08-21T09:17:09;21.50;99.70
29363;DHT22;16349;53.672;10.014;2022-08-21T09:19:53;21.50;99.90
29363;DHT22;16349;53.672;10.014;2022-08-21T09:22:30;21.60;99.60
29363;DHT22;16349;53.672;10.014;2022-08-21T09:25:05;21.70;99.30
29363;DHT22;16349;53.672;10.014;2022-08-21T09:27:35;21.70;99.10
29363;DHT22;16349;53.672;10.014;2022-08-21T09:30:05;21.70;99.50
29363;DHT22;16349;53.672;10.014;2022-08-21T09:32:35;21.80;99.20
29363;DHT22;16349;53.672;10.014;2022-08-21T09:35:06;21.90;99.10
29363;DHT22;16349;53.672;10.014;2022-08-21T09:37:45;21.90;98.60
29363;DHT22;16349;53.672;10.014;2022-08-21T09:40:26;21.90;98.60
29363;DHT22;16349;53.672;10.014;2022-08-21T09:42:59;21.90;98.30
29363;DHT22;16349;53.672;10.014;2022-08-21T09:45:26;21.90;98.40
29363;DHT22;16349;53.672;10.014;2022-08-21T09:47:55;21.90;98.40
29363;DHT22;16349;53.672;10.014;2022-08-21T09:50:24;22.10;98.00
29363;DHT22;16349;53.672;10.014;2022-08-21T09:52:53;22.20;98.40
29363;DHT22;16349;53.672;10.014;2022-08-21T09:55:29;22.20;97.70
29363;DHT22;16349;53.672;10.014;2022-08-21T09:58:16;22.30;97.70
29363;DHT22;16349;53.672;10.014;2022-08-21T10:00:43;22.30;97.70
29363;DHT22;16349;53.672;10.014;2022-08-21T10:03:15;22.50;97.40
29363;DHT22;16349;53.672;10.014;2022-08-21T10:05:52;22.50;97.30
29363;DHT22;16349;53.672;10.014;2022-08-21T10:08:20;22.60;97.20
29363;DHT22;16349;53.672;10.014;2022-08-21T10:10:51;22.50;97.30
29363;DHT22;16349;53.672;10.014;2022-08-21T10:13:24;22.50;97.10
29363;DHT22;16349;53.672;10.014;2022-08-21T10:16:00;22.40;97.40
29363;DHT22;16349;53.672;10.014;2022-08-21T10:18:38;22.40;97.00
29363;DHT22;16349;53.672;10.014;2022-08-21T10:21:15;22.50;96.40
29363;DHT22;16349;53.672;10.014;2022-08-21T10:23:51;22.70;96.20
29363;DHT22;16349;53.672;10.014;2022-08-21T10:26:33;22.80;95.80
29363;DHT22;16349;53.672;10.014;2022-08-21T10:29:08;22.80;94.50
29363;DHT22;16349;53.672;10.014;2022-08-21T10:31:44;22.80;94.70
29363;DHT22;16349;53.672;10.014;2022-08-21T10:34:32;22.70;94.80
29363;DHT22;16349;53.672;10.014;2022-08-21T10:37:11;22.80;94.80
29363;DHT22;16349;53.672;10.014;2022-08-21T10:39:46;22.90;94.70
29363;DHT22;16349;53.672;10.014;2022-08-21T10:42:31;22.90;94.90
29363;DHT22;16349;53.672;10.014;2022-08-21T10:45:11;23.00;94.80
29363;DHT22;16349;53.672;10.014;2022-08-21T10:47:46;23.00;95.10
29363;DHT22;16349;53.672;10.014;2022-08-21T10:50:25;23.10;95.40
29363;DHT22;16349;53.672;10.014;2022-08-21T10:53:14;23.20;94.80
29363;DHT22;16349;53.672;10.014;2022-08-21T10:55:46;23.20;94.60
29363;DHT22;16349;53.672;10.014;2022-08-21T10:58:20;23.10;95.00
29363;DHT22;16349;53.672;10.014;2022-08-21T11:00:53;22.90;94.90
29363;DHT22;16349;53.672;10.014;2022-08-21T11:03:27;22.90;95.20
29363;DHT22;16349;53.672;10.014;2022-08-21T11:06:00;23.00;95.10
29363;DHT22;16349;53.672;10.014;2022-08-21T11:08:31;23.20;94.50
29363;DHT22;16349;53.672;10.014;2022-08-21T11:11:04;23.50;94.20
29363;DHT22;16349;53.672;10.014;2022-08-21T11:13:35;23.60;93.00
29363;DHT22;16349;53.672;10.014;2022-08-21T11:16:09;23.70;91.80
29363;DHT22;16349;53.672;10.014;2022-08-21T11:18:39;23.80;91.60
29363;DHT22;16349;53.672;10.014;2022-08-21T11:21:27;23.80;90.40
29363;DHT22;16349;53.672;10.014;2022-08-21T11:24:00;23.80;89.60
29363;DHT22;16349;53.672;10.014;2022-08-21T11:26:34;23.80;90.80
29363;DHT22;16349;53.672;10.014;2022-08-21T11:29:09;24.00;90.20
29363;DHT22;16349;53.672;10.014;2022-08-21T11:31:47;24.10;89.30
29363;DHT22;16349;53.672;10.014;2022-08-21T11:34:27;24.10;89.80
29363;DHT22;16349;53.672;10.014;2022-08-21T11:37:03;24.00;88.10
29363;DHT22;16349;53.672;10.014;2022-08-21T11:39:38;23.80;87.70
29363;DHT22;16349;53.672;10.014;2022-08-21T11:42:16;23.70;87.60
29363;DHT22;16349;53.672;10.014;2022-08-21T11:44:49;23.70;87.30
29363;DHT22;16349;53.672;10.014;2022-08-21T11:47:25;23.70;87.20
29363;DHT22;16349;53.672;10.014;2022-08-21T11:50:06;23.80;86.50
29363;DHT22;16349;53.672;10.014;2022-08-21T11:52:43;23.80;86.50
29363;DHT22;16349;53.672;10.014;2022-08-21T11:55:16;23.70;86.70
29363;DHT22;16349;53.672;10.014;2022-08-21T11:57:50;23.60;86.70
29363;DHT22;16349;53.672;10.014;2022-08-21T12:00:21;23.60;86.30
29363;DHT22;16349;53.672;10.014;2022-08-21T12:02:51;23.70;86.30
29363;DHT22;16349;53.672;10.014;2022-08-21T12:05:25;23.70;84.40
29363;DHT22;16349;53.672;10.014;2022-08-21T12:08:03;23.90;83.10
29363;DHT22;16349;53.672;10.014;2022-08-21T12:10:33;24.20;81.70
29363;DHT22;16349;53.672;10.014;2022-08-21T12:13:07;24.40;81.30
29363;DHT22;16349;53.672;10.014;2022-08-21T12:15:35;24.50;80.50
29363;DHT22;16349;53.672;10.014;2022-08-21T12:18:04;24.50;80.40
29363;DHT22;16349;53.672;10.014;2022-08-21T12:20:42;24.70;94.30
29363;DHT22;16349;53.672;10.014;2022-08-21T12:23:23;24.80;80.60
29363;DHT22;16349;53.672;10.014;2022-08-21T12:26:02;24.60;80.00
29363;DHT22;16349;53.672;10.014;2022-08-21T12:28:30;24.40;80.50
29363;DHT22;16349;53.672;10.014;2022-08-21T12:30:58;24.20;81.40
29363;DHT22;16349;53.672;10.014;2022-08-21T12:33:27;24.10;82.00
29363;DHT22;16349;53.672;10.014;2022-08-21T12:36:03;23.90;81.90
29363;DHT22;16349;53.672;10.014;2022-08-21T12:38:46;23.80;82.00
29363;DHT22;16349;53.672;10.014;2022-08-21T12:41:18;23.80;82.20
29363;DHT22;16349;53.672;10.014;2022-08-21T12:43:51;24.00;81.00
29363;DHT22;16349;53.672;10.014;2022-08-21T12:46:28;24.40;79.10
29363;DHT22;16349;53.672;10.014;2022-08-21T12:48:58;24.60;77.40
29363;DHT22;16349;53.672;10.014;2022-08-21T12:51:31;24.80;76.50
29363;DHT22;16349;53.672;10.014;2022-08-21T12:54:01;24.80;77.50
29363;DHT22;16349;53.672;10.014;2022-08-21T12:56:31;24.90;77.50
29363;DHT22;16349;53.672;10.014;2022-08-21T12:59:03;25.20;76.50
29363;DHT22;16349;53.672;10.014;2022-08-21T13:01:33;25.30;76.40
29363;DHT22;16349;53.672;10.014;2022-08-21T13:04:10;25.70;75.10
29363;DHT22;16349;53.672;10.014;2022-08-21T13:06:42;25.80;73.00
29363;DHT22;16349;53.672;10.014;2022-08-21T13:09:13;25.70;73.30
29363;DHT22;16349;53.672;10.014;2022-08-21T13:11:42;26.00;73.90
29363;DHT22;16349;53.672;10.014;2022-08-21T13:14:20;26.50;71.20
29363;DHT22;16349;53.672;10.014;2022-08-21T13:16:53;26.60;69.30
29363;DHT22;16349;53.672;10.014;2022-08-21T13:19:21;27.00;68.20
29363;DHT22;16349;53.672;10.014;2022-08-21T13:21:48;27.70;66.50
29363;DHT22;16349;53.672;10.014;2022-08-21T13:24:20;27.80;66.40
29363;DHT22;16349;53.672;10.014;2022-08-21T13:26:48;27.40;65.00
29363;DHT22;16349;53.672;10.014;2022-08-21T13:29:17;26.90;66.60
29363;DHT22;16349;53.672;10.014;2022-08-21T13:31:48;26.70;66.10
29363;DHT22;16349;53.672;10.014;2022-08-21T13:34:17;26.70;66.50
29363;DHT22;16349;53.672;10.014;2022-08-21T13:36:45;26.90;66.30
29363;DHT22;16349;53.672;10.014;2022-08-21T13:39:17;27.40;65.40
29363;DHT22;16349;53.672;10.014;2022-08-21T13:41:48;27.30;63.50
29363;DHT22;16349;53.672;10.014;2022-08-21T13:44:18;26.70;63.60
29363;DHT22;16349;53.672;10.014;2022-08-21T13:46:46;26.30;64.50
29363;DHT22;16349;53.672;10.014;2022-08-21T13:49:15;26.00;65.40
29363;DHT22;16349;53.672;10.014;2022-08-21T13:51:43;26.10;65.20
29363;DHT22;16349;53.672;10.014;2022-08-21T13:54:21;26.00;65.30
29363;DHT22;16349;53.672;10.014;2022-08-21T13:56:49;26.20;65.90
29363;DHT22;16349;53.672;10.014;2022-08-21T13:59:25;26.10;65.40
29363;DHT22;16349;53.672;10.014;2022-08-21T14:01:55;25.90;63.50
29363;DHT22;16349;53.672;10.014;2022-08-21T14:04:31;25.80;65.10
29363;DHT22;16349;53.672;10.014;2022-08-21T14:06:59;26.00;64.70
29363;DHT22;16349;53.672;10.014;2022-08-21T14:09:31;25.70;65.40
29363;DHT22;16349;53.672;10.014;2022-08-21T14:12:02;25.50;65.60
29363;DHT22;16349;53.672;10.014;2022-08-21T14:14:31;25.40;66.30
29363;DHT22;16349;53.672;10.014;2022-08-21T14:17:02;25.40;65.70
29363;DHT22;16349;53.672;10.014;2022-08-21T14:19:37;25.90;64.80
29363;DHT22;16349;53.672;10.014;2022-08-21T14:22:23;26.50;63.20
29363;DHT22;16349;53.672;10.014;2022-08-21T14:25:01;27.40;61.40
29363;DHT22;16349;53.672;10.014;2022-08-21T14:27:31;28.00;60.40
29363;DHT22;16349;53.672;10.014;2022-08-21T14:30:00;28.40;59.90
29363;DHT22;16349;53.672;10.014;2022-08-21T14:32:29;28.60;58.80
29363;DHT22;16349;53.672;10.014;2022-08-21T14:34:57;28.00;59.20
29363;DHT22;16349;53.672;10.014;2022-08-21T14:37:24;27.40;60.50
29363;DHT22;16349;53.672;10.014;2022-08-21T14:39:51;27.40;60.70
29363;DHT22;16349;53.672;10.014;2022-08-21T14:42:20;27.80;59.90
29363;DHT22;16349;53.672;10.014;2022-08-21T14:44:47;28.20;59.80
29363;DHT22;16349;53.672;10.014;2022-08-21T14:47:14;28.70;57.80
29363;DHT22;16349;53.672;10.014;2022-08-21T14:49:41;29.10;56.90
29363;DHT22;16349;53.672;10.014;2022-08-21T14:52:08;29.40;54.80
29363;DHT22;16349;53.672;10.014;2022-08-21T14:54:35;29.30;56.40
29363;DHT22;16349;53.672;10.014;2022-08-21T14:57:06;29.80;55.60
29363;DHT22;16349;53.672;10.014;2022-08-21T14:59:36;29.90;55.80
29363;DHT22;16349;53.672;10.014;2022-08-21T15:02:04;30.00;54.80
29363;DHT22;16349;53.672;10.014;2022-08-21T15:04:32;30.10;54.10
29363;DHT22;16349;53.672;10.014;2022-08-21T15:09:26;31.10;88.10
29363;DHT22;16349;53.672;10.014;2022-08-21T15:11:57;31.20;52.20
29363;DHT22;16349;53.672;10.014;2022-08-21T15:14:26;30.60;53.30
29363;DHT22;16349;53.672;10.014;2022-08-21T15:16:55;30.50;53.20
29363;DHT22;16349;53.672;10.014;2022-08-21T15:19:22;30.30;53.70
29363;DHT22;16349;53.672;10.014;2022-08-21T15:21:49;30.20;53.50
29363;DHT22;16349;53.672;10.014;2022-08-21T15:26:43;29.40;52.80
29363;DHT22;16349;53.672;10.014;2022-08-21T15:29:11;29.20;54.00
29363;DHT22;16349;53.672;10.014;2022-08-21T15:31:50;29.50;54.00
29363;DHT22;16349;53.672;10.014;2022-08-21T15:34:18;30.00;52.80
29363;DHT22;16349;53.672;10.014;2022-08-21T15:36:46;30.40;52.00